sensor_id;sensor_type;location;lat;lon;timestamp;pressure;altitude;pressure_sealevel;temperature;humidity
34235;BME280;20500;49.856;20.290;2023-02-17T00:01:34;99491.81;;;-1.05;72.61
34235;BME280;20500;49.856;20.290;2023-02-17T00:04:41;99491.41;;;-1.07;72.75
34235;BME280;20500;49.856;20.290;2023-02-17T00:07:47;99488.83;;;-1.09;72.76
34235;BME280;20500;49.856;20.290;2023-02-17T00:11:00;99491.86;;;-1.09;72.76
34235;BME280;20500;49.856;20.290;2023-02-17T00:14:07;99493.80;;;-1.08;72.79
34235;BME280;20500;49.856;20.290;2023-02-17T00:17:14;99494.77;;;-1.10;72.84
34235;BME280;20500;49.856;20.290;2023-02-17T00:20:20;99495.50;;;-1.10;72.92
34235;BME280;20500;49.856;20.290;2023-02-17T00:23:26;99497.13;;;-1.10;72.97
34235;BME280;20500;49.856;20.290;2023-02-17T00:26:31;99495.45;;;-1.06;73.14
34235;BME280;20500;49.856;20.290;2023-02-17T00:29:37;99495.30;;;-1.07;73.02
34235;BME280;20500;49.856;20.290;2023-02-17T00:32:43;99494.27;;;-1.10;72.97
34235;BME280;20500;49.856;20.290;2023-02-17T00:35:49;99495.40;;;-1.11;73.06
34235;BME280;20500;49.856;20.290;2023-02-17T00:38:57;99493.05;;;-1.13;73.11
34235;BME280;20500;49.856;20.290;2023-02-17T00:42:03;99487.29;;;-1.15;73.04
34235;BME280;20500;49.856;20.290;2023-02-17T00:45:10;99488.99;;;-1.17;73.07
34235;BME280;20500;49.856;20.290;2023-02-17T00:48:17;99489.98;;;-1.18;72.96
34235;BME280;20500;49.856;20.290;2023-02-17T00:51:23;99490.83;;;-1.20;73.14
34235;BME280;20500;49.856;20.290;2023-02-17T00:54:30;99484.95;;;-1.20;73.22
34235;BME280;20500;49.856;20.290;2023-02-17T00:57:34;99482.43;;;-1.20;73.20
34235;BME280;20500;49.856;20.290;2023-02-17T01:00:41;99481.27;;;-1.19;73.30
34235;BME280;20500;49.856;20.290;2023-02-17T01:03:45;99473.94;;;-1.21;73.28
34235;BME280;20500;49.856;20.290;2023-02-17T01:06:51;99470.97;;;-1.25;73.28
34235;BME280;20500;49.856;20.290;2023-02-17T01:09:58;99468.77;;;-1.27;73.23
34235;BME280;20500;49.856;20.290;2023-02-17T01:13:02;99467.33;;;-1.31;73.27
34235;BME280;20500;49.856;20.290;2023-02-17T01:16:19;99465.48;;;-1.34;73.41
34235;BME280;20500;49.856;20.290;2023-02-17T01:19:25;99459.88;;;-1.35;73.46
34235;BME280;20500;49.856;20.290;2023-02-17T01:22:31;99455.38;;;-1.37;73.41
34235;BME280;20500;49.856;20.290;2023-02-17T01:25:36;99451.18;;;-1.35;73.46
34235;BME280;20500;49.856;20.290;2023-02-17T01:28:43;99445.89;;;-1.39;73.55
34235;BME280;20500;49.856;20.290;2023-02-17T01:31:50;99445.83;;;-1.40;73.53
34235;BME280;20500;49.856;20.290;2023-02-17T01:34:56;99439.61;;;-1.43;73.48
34235;BME280;20500;49.856;20.290;2023-02-17T01:38:02;99429.98;;;-1.46;73.60
34235;BME280;20500;49.856;20.290;2023-02-17T01:41:10;99428.97;;;-1.47;73.61
34235;BME280;20500;49.856;20.290;2023-02-17T01:44:18;99425.73;;;-1.44;73.75
34235;BME280;20500;49.856;20.290;2023-02-17T01:47:25;99420.86;;;-1.40;73.65
34235;BME280;20500;49.856;20.290;2023-02-17T01:50:36;99415.25;;;-1.38;73.73
34235;BME280;20500;49.856;20.290;2023-02-17T01:53:44;99410.70;;;-1.37;73.65
34235;BME280;20500;49.856;20.290;2023-02-17T01:56:53;99411.80;;;-1.32;73.78
34235;BME280;20500;49.856;20.290;2023-02-17T02:00:01;99404.16;;;-1.29;73.75
34235;BME280;20500;49.856;20.290;2023-02-17T02:03:06;99393.41;;;-1.34;73.57
34235;BME280;20500;49.856;20.290;2023-02-17T02:06:15;99384.10;;;-1.41;73.69
34235;BME280;20500;49.856;20.290;2023-02-17T02:09:26;99379.64;;;-1.47;73.72
34235;BME280;20500;49.856;20.290;2023-02-17T02:12:36;99380.67;;;-1.46;73.87
34235;BME280;20500;49.856;20.290;2023-02-17T02:15:46;99377.73;;;-1.45;73.94
34235;BME280;20500;49.856;20.290;2023-02-17T02:19:01;99375.48;;;-1.46;73.99
34235;BME280;20500;49.856;20.290;2023-02-17T02:22:35;99367.11;;;-1.46;74.03
34235;BME280;20500;49.856;20.290;2023-02-17T02:26:09;99371.42;;;-1.46;74.06
34235;BME280;20500;49.856;20.290;2023-02-17T02:33:13;99370.73;;;-1.60;74.19
34235;BME280;20500;49.856;20.290;2023-02-17T02:36:26;99376.95;;;-1.66;74.37
34235;BME280;20500;49.856;20.290;2023-02-17T02:39:36;99377.88;;;-1.61;74.51
34235;BME280;20500;49.856;20.290;2023-02-17T02:42:45;99378.70;;;-1.54;74.63
34235;BME280;20500;49.856;20.290;2023-02-17T02:45:52;99379.31;;;-1.47;74.74
34235;BME280;20500;49.856;20.290;2023-02-17T02:48:58;99375.19;;;-1.41;74.79
34235;BME280;20500;49.856;20.290;2023-02-17T02:52:11;99376.82;;;-1.36;74.74
34235;BME280;20500;49.856;20.290;2023-02-17T02:55:26;99378.02;;;-1.33;74.63
34235;BME280;20500;49.856;20.290;2023-02-17T02:58:41;99385.46;;;-1.29;74.73
34235;BME280;20500;49.856;20.290;2023-02-17T03:02:06;99382.92;;;-1.26;74.60
34235;BME280;20500;49.856;20.290;2023-02-17T03:05:23;99385.42;;;-1.23;74.83
34235;BME280;20500;49.856;20.290;2023-02-17T03:08:34;99389.59;;;-1.25;74.86
34235;BME280;20500;49.856;20.290;2023-02-17T03:11:42;99390.04;;;-1.23;74.81
34235;BME280;20500;49.856;20.290;2023-02-17T03:14:52;99387.91;;;-1.20;74.73
34235;BME280;20500;49.856;20.290;2023-02-17T03:18:00;99384.43;;;-1.19;74.91
34235;BME280;20500;49.856;20.290;2023-02-17T03:21:15;99383.59;;;-1.20;74.76
34235;BME280;20500;49.856;20.290;2023-02-17T03:24:21;99378.86;;;-1.24;74.75
34235;BME280;20500;49.856;20.290;2023-02-17T03:27:28;99380.04;;;-1.25;74.88
34235;BME280;20500;49.856;20.290;2023-02-17T03:30:35;99383.23;;;-1.25;74.90
34235;BME280;20500;49.856;20.290;2023-02-17T03:33:41;99382.79;;;-1.24;74.93
34235;BME280;20500;49.856;20.290;2023-02-17T03:36:46;99377.23;;;-1.24;74.96
34235;BME280;20500;49.856;20.290;2023-02-17T03:39:52;99373.89;;;-1.27;75.05
34235;BME280;20500;49.856;20.290;2023-02-17T03:42:59;99370.04;;;-1.25;75.19
34235;BME280;20500;49.856;20.290;2023-02-17T03:46:03;99369.73;;;-1.23;75.18
34235;BME280;20500;49.856;20.290;2023-02-17T03:49:10;99368.63;;;-1.28;75.10
34235;BME280;20500;49.856;20.290;2023-02-17T03:52:17;99370.16;;;-1.35;75.28
34235;BME280;20500;49.856;20.290;2023-02-17T03:55:23;99370.54;;;-1.38;75.47
34235;BME280;20500;49.856;20.290;2023-02-17T03:58:29;99362.83;;;-1.37;75.50
34235;BME280;20500;49.856;20.290;2023-02-17T04:01:35;99355.93;;;-1.38;75.60
34235;BME280;20500;49.856;20.290;2023-02-17T04:04:40;99356.67;;;-1.35;75.62
34235;BME280;20500;49.856;20.290;2023-02-17T04:07:46;99355.35;;;-1.32;75.81
34235;BME280;20500;49.856;20.290;2023-02-17T04:10:51;99352.46;;;-1.26;75.88
34235;BME280;20500;49.856;20.290;2023-02-17T04:13:58;99353.20;;;-1.18;76.15
34235;BME280;20500;49.856;20.290;2023-02-17T04:17:04;99354.52;;;-1.11;76.06
34235;BME280;20500;49.856;20.290;2023-02-17T04:20:12;99352.78;;;-1.09;75.89
34235;BME280;20500;49.856;20.290;2023-02-17T04:23:19;99347.33;;;-1.10;75.93
34235;BME280;20500;49.856;20.290;2023-02-17T04:26:25;99341.89;;;-1.06;75.88
34235;BME280;20500;49.856;20.290;2023-02-17T04:29:32;99339.64;;;-1.05;75.84
34235;BME280;20500;49.856;20.290;2023-02-17T04:32:38;99340.08;;;-1.03;75.85
34235;BME280;20500;49.856;20.290;2023-02-17T04:35:45;99346.05;;;-1.02;75.95
34235;BME280;20500;49.856;20.290;2023-02-17T04:38:51;99344.05;;;-1.01;75.92
34235;BME280;20500;49.856;20.290;2023-02-17T04:41:58;99336.27;;;-1.02;76.05
34235;BME280;20500;49.856;20.290;2023-02-17T04:45:05;99336.50;;;-0.97;76.33
34235;BME280;20500;49.856;20.290;2023-02-17T04:48:12;99335.89;;;-0.91;76.29
34235;BME280;20500;49.856;20.290;2023-02-17T04:51:18;99335.94;;;-0.89;76.08
34235;BME280;20500;49.856;20.290;2023-02-17T04:54:22;99333.45;;;-0.89;76.46
34235;BME280;20500;49.856;20.290;2023-02-17T04:57:29;99338.00;;;-0.85;76.52
34235;BME280;20500;49.856;20.290;2023-02-17T05:00:33;99333.53;;;-0.82;76.38
34235;BME280;20500;49.856;20.290;2023-02-17T05:03:39;99333.02;;;-0.80;76.52
34235;BME280;20500;49.856;20.290;2023-02-17T05:06:46;99332.69;;;-0.75;76.64
34235;BME280;20500;49.856;20.290;2023-02-17T05:09:50;99332.26;;;-0.71;76.79
34235;BME280;20500;49.856;20.290;2023-02-17T05:12:57;99330.63;;;-0.66;76.79
34235;BME280;20500;49.856;20.290;2023-02-17T05:16:04;99330.80;;;-0.61;76.81
34235;BME280;20500;49.856;20.290;2023-02-17T05:19:11;99327.86;;;-0.54;76.87
34235;BME280;20500;49.856;20.290;2023-02-17T05:22:16;99315.75;;;-0.49;76.68
34235;BME280;20500;49.856;20.290;2023-02-17T05:25:22;99310.39;;;-0.41;77.07
34235;BME280;20500;49.856;20.290;2023-02-17T05:28:28;99314.97;;;-0.30;77.06
34235;BME280;20500;49.856;20.290;2023-02-17T05:31:33;99316.16;;;-0.24;76.91
34235;BME280;20500;49.856;20.290;2023-02-17T05:34:39;99311.48;;;-0.24;76.88
34235;BME280;20500;49.856;20.290;2023-02-17T05:37:46;99309.71;;;-0.24;76.82
34235;BME280;20500;49.856;20.290;2023-02-17T05:40:50;99310.27;;;-0.25;77.04
34235;BME280;20500;49.856;20.290;2023-02-17T05:43:57;99309.08;;;-0.25;77.09
34235;BME280;20500;49.856;20.290;2023-02-17T05:47:03;99309.14;;;-0.24;77.20
34235;BME280;20500;49.856;20.290;2023-02-17T05:50:10;99313.39;;;-0.18;77.37
34235;BME280;20500;49.856;20.290;2023-02-17T05:53:17;99310.56;;;-0.14;77.31
34235;BME280;20500;49.856;20.290;2023-02-17T05:56:23;99316.51;;;-0.09;77.34
34235;BME280;20500;49.856;20.290;2023-02-17T05:59:29;99319.64;;;-0.06;77.38
34235;BME280;20500;49.856;20.290;2023-02-17T06:02:34;99323.45;;;0.01;77.60
34235;BME280;20500;49.856;20.290;2023-02-17T06:05:40;99329.33;;;0.12;77.63
34235;BME280;20500;49.856;20.290;2023-02-17T06:08:46;99334.02;;;0.18;77.56
34235;BME280;20500;49.856;20.290;2023-02-17T06:11:51;99333.65;;;0.26;77.72
34235;BME280;20500;49.856;20.290;2023-02-17T06:14:57;99325.33;;;0.35;77.79
34235;BME280;20500;49.856;20.290;2023-02-17T06:18:03;99316.81;;;0.43;77.70
34235;BME280;20500;49.856;20.290;2023-02-17T06:21:10;99314.84;;;0.48;77.52
34235;BME280;20500;49.856;20.290;2023-02-17T06:24:14;99316.40;;;0.49;77.56
34235;BME280;20500;49.856;20.290;2023-02-17T06:27:20;99313.48;;;0.51;77.67
34235;BME280;20500;49.856;20.290;2023-02-17T06:30:27;99309.77;;;0.50;77.61
34235;BME280;20500;49.856;20.290;2023-02-17T06:33:33;99303.95;;;0.51;77.65
34235;BME280;20500;49.856;20.290;2023-02-17T06:36:39;99299.20;;;0.55;77.66
34235;BME280;20500;49.856;20.290;2023-02-17T06:39:46;99294.27;;;0.59;77.84
34235;BME280;20500;49.856;20.290;2023-02-17T06:42:52;99289.60;;;0.62;77.86
34235;BME280;20500;49.856;20.290;2023-02-17T06:45:59;99290.34;;;0.66;77.90
34235;BME280;20500;49.856;20.290;2023-02-17T06:49:03;99291.46;;;0.70;77.93
34235;BME280;20500;49.856;20.290;2023-02-17T06:52:10;99285.11;;;0.74;78.03
34235;BME280;20500;49.856;20.290;2023-02-17T06:55:16;99285.89;;;0.80;78.12
34235;BME280;20500;49.856;20.290;2023-02-17T06:58:20;99294.70;;;0.89;78.28
34235;BME280;20500;49.856;20.290;2023-02-17T07:01:27;99289.88;;;0.96;78.19
34235;BME280;20500;49.856;20.290;2023-02-17T07:04:33;99282.60;;;1.09;78.37
34235;BME280;20500;49.856;20.290;2023-02-17T07:07:37;99277.38;;;1.28;78.31
34235;BME280;20500;49.856;20.290;2023-02-17T07:10:44;99280.23;;;1.47;78.30
34235;BME280;20500;49.856;20.290;2023-02-17T07:13:50;99285.23;;;1.61;78.25
34235;BME280;20500;49.856;20.290;2023-02-17T07:16:54;99285.06;;;1.72;78.32
34235;BME280;20500;49.856;20.290;2023-02-17T07:20:01;99289.63;;;1.87;78.33
34235;BME280;20500;49.856;20.290;2023-02-17T07:23:05;99295.94;;;2.02;78.23
34235;BME280;20500;49.856;20.290;2023-02-17T07:26:12;99298.51;;;2.17;78.23
34235;BME280;20500;49.856;20.290;2023-02-17T07:29:18;99299.66;;;2.31;78.31
34235;BME280;20500;49.856;20.290;2023-02-17T07:32:24;99298.36;;;2.45;78.13
34235;BME280;20500;49.856;20.290;2023-02-17T07:35:31;99306.35;;;2.59;78.17
34235;BME280;20500;49.856;20.290;2023-02-17T07:38:37;99310.86;;;2.74;78.24
34235;BME280;20500;49.856;20.290;2023-02-17T07:41:44;99310.30;;;2.87;78.21
34235;BME280;20500;49.856;20.290;2023-02-17T07:44:50;99306.75;;;3.02;78.08
34235;BME280;20500;49.856;20.290;2023-02-17T07:47:57;99307.44;;;3.15;78.18
34235;BME280;20500;49.856;20.290;2023-02-17T07:51:08;99303.36;;;3.27;78.17
34235;BME280;20500;49.856;20.290;2023-02-17T07:54:14;99299.52;;;3.36;78.22
34235;BME280;20500;49.856;20.290;2023-02-17T07:57:21;99289.94;;;3.44;78.29
34235;BME280;20500;49.856;20.290;2023-02-17T08:00:25;99292.48;;;3.52;78.23
34235;BME280;20500;49.856;20.290;2023-02-17T08:03:31;99285.34;;;3.59;78.45
34235;BME280;20500;49.856;20.290;2023-02-17T08:06:38;99279.50;;;3.69;78.40
34235;BME280;20500;49.856;20.290;2023-02-17T08:09:44;99274.65;;;3.79;78.35
34235;BME280;20500;49.856;20.290;2023-02-17T08:13:08;99269.00;;;3.88;78.33
34235;BME280;20500;49.856;20.290;2023-02-17T08:16:25;99257.54;;;3.98;78.42
34235;BME280;20500;49.856;20.290;2023-02-17T08:19:32;99250.15;;;4.11;78.41
34235;BME280;20500;49.856;20.290;2023-02-17T08:22:52;99244.73;;;4.25;78.42
34235;BME280;20500;49.856;20.290;2023-02-17T08:25:59;99239.31;;;4.41;78.31
34235;BME280;20500;49.856;20.290;2023-02-17T08:29:05;99235.17;;;4.55;78.20
34235;BME280;20500;49.856;20.290;2023-02-17T08:32:09;99231.72;;;4.73;78.24
34235;BME280;20500;49.856;20.290;2023-02-17T08:35:16;99236.23;;;4.91;78.18
34235;BME280;20500;49.856;20.290;2023-02-17T08:38:26;99238.88;;;5.05;78.18
34235;BME280;20500;49.856;20.290;2023-02-17T08:41:34;99236.79;;;5.19;78.05
34235;BME280;20500;49.856;20.290;2023-02-17T08:44:40;99235.95;;;5.34;78.07
34235;BME280;20500;49.856;20.290;2023-02-17T08:47:47;99233.89;;;5.48;77.89
34235;BME280;20500;49.856;20.290;2023-02-17T08:50:54;99233.41;;;5.61;77.96
34235;BME280;20500;49.856;20.290;2023-02-17T08:54:01;99234.68;;;5.74;77.91
34235;BME280;20500;49.856;20.290;2023-02-17T08:57:08;99236.77;;;5.88;77.88
34235;BME280;20500;49.856;20.290;2023-02-17T09:00:17;99229.10;;;6.00;77.84
34235;BME280;20500;49.856;20.290;2023-02-17T09:03:23;99226.80;;;6.13;77.91
34235;BME280;20500;49.856;20.290;2023-02-17T09:06:34;99225.19;;;6.25;77.86
34235;BME280;20500;49.856;20.290;2023-02-17T09:09:41;99214.82;;;6.39;77.56
34235;BME280;20500;49.856;20.290;2023-02-17T09:12:48;99212.70;;;6.51;77.56
34235;BME280;20500;49.856;20.290;2023-02-17T09:15:55;99211.14;;;6.65;77.53
34235;BME280;20500;49.856;20.290;2023-02-17T09:19:02;99208.77;;;6.78;77.45
34235;BME280;20500;49.856;20.290;2023-02-17T09:22:08;99215.40;;;6.91;77.37
34235;BME280;20500;49.856;20.290;2023-02-17T09:25:34;99214.80;;;7.04;77.28
34235;BME280;20500;49.856;20.290;2023-02-17T09:28:41;99210.64;;;7.16;77.23
34235;BME280;20500;49.856;20.290;2023-02-17T09:31:47;99211.41;;;7.28;77.13
34235;BME280;20500;49.856;20.290;2023-02-17T09:34:54;99204.74;;;7.39;77.07
34235;BME280;20500;49.856;20.290;2023-02-17T09:38:00;99198.81;;;7.47;76.94
34235;BME280;20500;49.856;20.290;2023-02-17T09:41:14;99190.91;;;7.55;76.97
34235;BME280;20500;49.856;20.290;2023-02-17T09:44:23;99188.45;;;7.63;76.87
34235;BME280;20500;49.856;20.290;2023-02-17T09:47:33;99191.17;;;7.65;76.60
34235;BME280;20500;49.856;20.290;2023-02-17T09:50:47;99190.05;;;7.65;76.45
34235;BME280;20500;49.856;20.290;2023-02-17T09:54:03;99181.95;;;7.67;76.28
34235;BME280;20500;49.856;20.290;2023-02-17T09:57:16;99166.33;;;7.68;76.31
34235;BME280;20500;49.856;20.290;2023-02-17T10:00:28;99167.93;;;7.69;76.20
34235;BME280;20500;49.856;20.290;2023-02-17T10:03:38;99164.92;;;7.70;76.08
34235;BME280;20500;49.856;20.290;2023-02-17T10:06:47;99162.15;;;7.71;76.01
34235;BME280;20500;49.856;20.290;2023-02-17T10:10:02;99160.23;;;7.70;75.93
34235;BME280;20500;49.856;20.290;2023-02-17T10:13:10;99151.80;;;7.70;75.91
34235;BME280;20500;49.856;20.290;2023-02-17T10:16:21;99154.48;;;7.69;75.91
34235;BME280;20500;49.856;20.290;2023-02-17T10:19:31;99165.11;;;7.69;75.93
34235;BME280;20500;49.856;20.290;2023-02-17T10:22:41;99159.90;;;7.68;76.04
34235;BME280;20500;49.856;20.290;2023-02-17T10:26:01;99156.66;;;7.67;76.15
34235;BME280;20500;49.856;20.290;2023-02-17T10:29:18;99150.02;;;7.66;76.02
34235;BME280;20500;49.856;20.290;2023-02-17T10:32:27;99143.94;;;7.69;75.92
34235;BME280;20500;49.856;20.290;2023-02-17T10:35:49;99139.59;;;7.73;75.82
34235;BME280;20500;49.856;20.290;2023-02-17T10:39:00;99133.62;;;7.78;75.81
34235;BME280;20500;49.856;20.290;2023-02-17T10:42:09;99120.27;;;7.83;75.67
34235;BME280;20500;49.856;20.290;2023-02-17T10:45:26;99111.78;;;7.88;75.63
34235;BME280;20500;49.856;20.290;2023-02-17T10:48:37;99111.86;;;7.92;75.58
34235;BME280;20500;49.856;20.290;2023-02-17T10:51:45;99114.52;;;7.96;75.57
34235;BME280;20500;49.856;20.290;2023-02-17T10:54:54;99114.30;;;7.98;75.55
34235;BME280;20500;49.856;20.290;2023-02-17T10:58:09;99107.62;;;8.00;75.36
34235;BME280;20500;49.856;20.290;2023-02-17T11:01:17;99105.66;;;8.01;75.39
34235;BME280;20500;49.856;20.290;2023-02-17T11:04:24;99103.23;;;8.02;75.40
34235;BME280;20500;49.856;20.290;2023-02-17T11:07:32;99096.95;;;8.01;75.25
34235;BME280;20500;49.856;20.290;2023-02-17T11:10:41;99096.05;;;8.01;75.18
34235;BME280;20500;49.856;20.290;2023-02-17T11:14:02;99092.92;;;8.02;75.11
34235;BME280;20500;49.856;20.290;2023-02-17T11:17:17;99086.61;;;8.03;75.05
34235;BME280;20500;49.856;20.290;2023-02-17T11:20:32;99080.86;;;8.06;75.02
34235;BME280;20500;49.856;20.290;2023-02-17T11:23:49;99079.75;;;8.08;74.93
34235;BME280;20500;49.856;20.290;2023-02-17T11:26:59;99078.19;;;8.08;74.73
34235;BME280;20500;49.856;20.290;2023-02-17T11:30:17;99075.65;;;8.06;74.83
34235;BME280;20500;49.856;20.290;2023-02-17T11:33:30;99075.23;;;8.03;74.98
34235;BME280;20500;49.856;20.290;2023-02-17T11:36:37;99079.55;;;8.00;74.93
34235;BME280;20500;49.856;20.290;2023-02-17T11:39:41;99071.85;;;7.94;74.85
34235;BME280;20500;49.856;20.290;2023-02-17T11:42:56;99070.31;;;7.90;74.96
34235;BME280;20500;49.856;20.290;2023-02-17T11:46:14;99068.98;;;7.84;74.98
34235;BME280;20500;49.856;20.290;2023-02-17T11:49:43;99066.65;;;7.77;75.01
34235;BME280;20500;49.856;20.290;2023-02-17T11:53:10;99062.46;;;7.71;74.97
34235;BME280;20500;49.856;20.290;2023-02-17T11:56:24;99058.23;;;7.65;74.93
34235;BME280;20500;49.856;20.290;2023-02-17T11:59:43;99050.61;;;7.60;74.79
34235;BME280;20500;49.856;20.290;2023-02-17T12:03:07;99047.84;;;7.55;74.75
34235;BME280;20500;49.856;20.290;2023-02-17T12:06:28;99042.73;;;7.53;74.81
34235;BME280;20500;49.856;20.290;2023-02-17T12:09:45;99036.21;;;7.51;74.81
34235;BME280;20500;49.856;20.290;2023-02-17T12:13:01;99028.38;;;7.52;74.72
34235;BME280;20500;49.856;20.290;2023-02-17T12:16:37;99015.61;;;7.53;74.69
34235;BME280;20500;49.856;20.290;2023-02-17T12:19:51;99007.41;;;7.55;74.68
34235;BME280;20500;49.856;20.290;2023-02-17T12:23:07;99006.61;;;7.58;74.68
34235;BME280;20500;49.856;20.290;2023-02-17T12:26:24;99005.43;;;7.60;74.62
34235;BME280;20500;49.856;20.290;2023-02-17T12:29:50;99005.73;;;7.63;74.49
34235;BME280;20500;49.856;20.290;2023-02-17T12:33:14;99005.91;;;7.63;74.33
34235;BME280;20500;49.856;20.290;2023-02-17T12:36:29;99008.98;;;7.63;74.49
34235;BME280;20500;49.856;20.290;2023-02-17T12:39:42;99005.27;;;7.62;74.41
34235;BME280;20500;49.856;20.290;2023-02-17T12:42:54;99001.48;;;7.62;74.46
34235;BME280;20500;49.856;20.290;2023-02-17T12:46:05;98997.34;;;7.62;74.34
34235;BME280;20500;49.856;20.290;2023-02-17T12:49:17;98995.75;;;7.61;74.23
34235;BME280;20500;49.856;20.290;2023-02-17T12:52:29;98996.50;;;7.61;74.32
34235;BME280;20500;49.856;20.290;2023-02-17T12:55:42;98994.77;;;7.61;74.19
34235;BME280;20500;49.856;20.290;2023-02-17T12:58:53;98993.55;;;7.62;74.16
34235;BME280;20500;49.856;20.290;2023-02-17T13:02:05;98984.21;;;7.63;74.13
34235;BME280;20500;49.856;20.290;2023-02-17T13:05:18;98979.00;;;7.66;74.14
34235;BME280;20500;49.856;20.290;2023-02-17T13:08:30;98976.60;;;7.70;74.17
34235;BME280;20500;49.856;20.290;2023-02-17T13:11:42;98970.27;;;7.73;74.04
34235;BME280;20500;49.856;20.290;2023-02-17T13:14:51;98970.96;;;7.76;74.10
34235;BME280;20500;49.856;20.290;2023-02-17T13:17:59;98972.13;;;7.79;74.07
34235;BME280;20500;49.856;20.290;2023-02-17T13:21:24;98975.36;;;7.81;73.98
34235;BME280;20500;49.856;20.290;2023-02-17T13:24:34;98974.81;;;7.83;73.99
34235;BME280;20500;49.856;20.290;2023-02-17T13:27:41;98974.09;;;7.85;73.90
34235;BME280;20500;49.856;20.290;2023-02-17T13:30:47;98972.90;;;7.86;73.83
34235;BME280;20500;49.856;20.290;2023-02-17T13:33:57;98970.02;;;7.86;73.80
34235;BME280;20500;49.856;20.290;2023-02-17T13:37:17;98963.66;;;7.86;73.96
34235;BME280;20500;49.856;20.290;2023-02-17T13:40:40;98956.64;;;7.86;73.82
34235;BME280;20500;49.856;20.290;2023-02-17T13:43:47;98952.38;;;7.85;73.72
34235;BME280;20500;49.856;20.290;2023-02-17T13:46:55;98948.41;;;7.85;73.59
34235;BME280;20500;49.856;20.290;2023-02-17T13:50:02;98941.60;;;7.85;73.65
34235;BME280;20500;49.856;20.290;2023-02-17T13:53:18;98935.27;;;7.85;73.60
34235;BME280;20500;49.856;20.290;2023-02-17T13:56:27;98925.69;;;7.83;73.49
34235;BME280;20500;49.856;20.290;2023-02-17T13:59:34;98922.80;;;7.81;73.44
34235;BME280;20500;49.856;20.290;2023-02-17T14:02:48;98917.93;;;7.79;73.39
34235;BME280;20500;49.856;20.290;2023-02-17T14:05:57;98910.41;;;7.79;73.38
34235;BME280;20500;49.856;20.290;2023-02-17T14:09:13;98905.09;;;7.79;73.25
34235;BME280;20500;49.856;20.290;2023-02-17T14:12:26;98903.89;;;7.80;73.28
34235;BME280;20500;49.856;20.290;2023-02-17T14:15:32;98900.16;;;7.81;73.32
34235;BME280;20500;49.856;20.290;2023-02-17T14:18:40;98889.84;;;7.82;73.18
34235;BME280;20500;49.856;20.290;2023-02-17T14:21:58;98884.73;;;7.84;73.30
34235;BME280;20500;49.856;20.290;2023-02-17T14:25:07;98882.39;;;7.87;73.26
34235;BME280;20500;49.856;20.290;2023-02-17T14:28:21;98872.73;;;7.90;73.19
34235;BME280;20500;49.856;20.290;2023-02-17T14:31:28;98866.36;;;7.88;73.17
34235;BME280;20500;49.856;20.290;2023-02-17T14:34:35;98860.61;;;7.88;73.12
34235;BME280;20500;49.856;20.290;2023-02-17T14:37:42;98856.06;;;7.88;73.06
34235;BME280;20500;49.856;20.290;2023-02-17T14:40:48;98855.48;;;7.89;73.17
34235;BME280;20500;49.856;20.290;2023-02-17T14:43:57;98853.52;;;7.85;72.99
34235;BME280;20500;49.856;20.290;2023-02-17T14:47:04;98853.30;;;7.80;72.82
34235;BME280;20500;49.856;20.290;2023-02-17T14:50:09;98854.11;;;7.75;72.74
34235;BME280;20500;49.856;20.290;2023-02-17T14:53:24;98846.04;;;7.69;72.80
34235;BME280;20500;49.856;20.290;2023-02-17T14:56:34;98840.39;;;7.65;72.75
34235;BME280;20500;49.856;20.290;2023-02-17T14:59:41;98832.02;;;7.62;72.77
34235;BME280;20500;49.856;20.290;2023-02-17T15:02:48;98823.40;;;7.60;72.82
34235;BME280;20500;49.856;20.290;2023-02-17T15:05:56;98822.00;;;7.58;72.88
34235;BME280;20500;49.856;20.290;2023-02-17T15:09:02;98822.59;;;7.56;72.74
34235;BME280;20500;49.856;20.290;2023-02-17T15:12:10;98820.20;;;7.53;72.68
34235;BME280;20500;49.856;20.290;2023-02-17T15:15:18;98817.04;;;7.53;72.83
34235;BME280;20500;49.856;20.290;2023-02-17T15:18:25;98812.86;;;7.51;72.67
34235;BME280;20500;49.856;20.290;2023-02-17T15:21:33;98807.58;;;7.48;72.81
34235;BME280;20500;49.856;20.290;2023-02-17T15:24:40;98802.33;;;7.47;72.78
34235;BME280;20500;49.856;20.290;2023-02-17T15:27:47;98802.36;;;7.46;72.75
34235;BME280;20500;49.856;20.290;2023-02-17T15:30:54;98795.45;;;7.47;72.74
34235;BME280;20500;49.856;20.290;2023-02-17T15:34:01;98787.73;;;7.46;72.79
34235;BME280;20500;49.856;20.290;2023-02-17T15:37:09;98782.65;;;7.47;72.72
34235;BME280;20500;49.856;20.290;2023-02-17T15:40:18;98775.16;;;7.48;72.66
34235;BME280;20500;49.856;20.290;2023-02-17T15:43:30;98776.02;;;7.48;72.65
34235;BME280;20500;49.856;20.290;2023-02-17T15:46:41;98772.44;;;7.48;72.71
34235;BME280;20500;49.856;20.290;2023-02-17T15:49:49;98767.19;;;7.48;72.75
34235;BME280;20500;49.856;20.290;2023-02-17T15:52:56;98756.48;;;7.46;72.51
34235;BME280;20500;49.856;20.290;2023-02-17T15:56:02;98756.50;;;7.45;72.53
34235;BME280;20500;49.856;20.290;2023-02-17T15:59:13;98747.90;;;7.44;72.56
34235;BME280;20500;49.856;20.290;2023-02-17T16:02:22;98741.97;;;7.44;72.53
34235;BME280;20500;49.856;20.290;2023-02-17T16:05:29;98740.23;;;7.42;72.68
34235;BME280;20500;49.856;20.290;2023-02-17T16:08:37;98733.69;;;7.38;72.70
34235;BME280;20500;49.856;20.290;2023-02-17T16:11:47;98726.64;;;7.32;72.68
34235;BME280;20500;49.856;20.290;2023-02-17T16:14:54;98721.46;;;7.25;72.84
34235;BME280;20500;49.856;20.290;2023-02-17T16:18:01;98711.92;;;7.19;72.97
34235;BME280;20500;49.856;20.290;2023-02-17T16:21:07;98715.44;;;7.13;72.92
34235;BME280;20500;49.856;20.290;2023-02-17T16:24:12;98716.48;;;7.08;73.11
34235;BME280;20500;49.856;20.290;2023-02-17T16:27:18;98707.64;;;7.03;73.16
34235;BME280;20500;49.856;20.290;2023-02-17T16:30:28;98706.88;;;6.99;73.14
34235;BME280;20500;49.856;20.290;2023-02-17T16:33:35;98701.42;;;6.96;73.13
34235;BME280;20500;49.856;20.290;2023-02-17T16:36:39;98701.15;;;6.92;73.17
34235;BME280;20500;49.856;20.290;2023-02-17T16:39:46;98692.89;;;6.90;73.30
34235;BME280;20500;49.856;20.290;2023-02-17T16:42:53;98687.34;;;6.90;73.28